Time;durP1;ratioP1;P1;durP2;ratioP2;P2;SDS_P1;SDS_P2;PMS_P1;PMS_P2;Temp;Humidity;BMP_temperature;BMP_pressure;BME280_temperature;BME280_humidity;BME280_pressure;Samples;Min_cycle;Max_cycle;Signal;HPM_P1;HPM_P2
2022/10/01 00:01:12;;;;;;;3.33;2.40;;;;;;;10.76;70.64;92520.19;2050778;70;20305;-79
2022/10/01 00:03:38;;;;;;;6.60;2.28;;;;;;;10.79;70.88;92521.06;2051270;70;20240;-79
2022/10/01 00:06:10;;;;;;;5.32;2.55;;;;;;;10.61;72.55;92520.72;2051388;70;20264;-79
2022/10/01 00:08:38;;;;;;;3.97;2.80;;;;;;;10.48;74.61;92524.19;2051220;70;20201;-79
2022/10/01 00:11:10;;;;;;;4.93;2.60;;;;;;;10.65;73.06;92530.16;2047864;70;20142;-78
2022/10/01 00:13:37;;;;;;;5.00;2.70;;;;;;;10.72;72.12;92536.88;2051195;70;20138;-79
2022/10/01 00:16:06;;;;;;;3.92;2.20;;;;;;;10.74;70.84;92536.97;2051111;70;20328;-79
2022/10/01 00:18:34;;;;;;;4.93;2.30;;;;;;;10.74;70.48;92536.25;2051211;70;20150;-79
2022/10/01 00:21:24;;;;;;;5.03;2.22;;;;;;;10.78;69.82;92542.13;2051131;70;20233;-79
2022/10/01 00:23:58;;;;;;;3.60;2.33;;;;;;;10.80;69.83;92550.66;2051197;70;20150;-79
2022/10/01 00:26:27;;;;;;;6.03;2.88;;;;;;;10.81;70.57;92550.06;2051184;70;20613;-78
2022/10/01 00:29:01;;;;;;;3.30;2.42;;;;;;;10.79;70.57;92547.13;2051037;70;20261;-78
2022/10/01 00:31:27;;;;;;;2.88;2.20;;;;;;;10.77;71.63;92549.84;2051291;70;20534;-78
2022/10/01 00:33:57;;;;;;;5.07;2.60;;;;;;;10.78;70.96;92542.84;2051143;70;20249;-79
2022/10/01 00:36:23;;;;;;;5.05;2.50;;;;;;;10.82;70.58;92547.97;2051055;70;20165;-79
2022/10/01 00:38:50;;;;;;;5.00;2.30;;;;;;;10.84;69.28;92548.09;2051248;70;20186;-77
2022/10/01 00:41:17;;;;;;;4.25;2.55;;;;;;;10.81;70.95;92552.13;2050571;70;20150;-78
2022/10/01 00:43:53;;;;;;;3.47;2.30;;;;;;;10.79;70.85;92549.22;2051064;70;20139;-78
2022/10/01 00:46:24;;;;;;;4.38;2.50;;;;;;;10.81;69.60;92560.56;2051106;70;20174;-78
2022/10/01 00:49:01;;;;;;;3.53;2.20;;;;;;;10.72;72.26;92561.47;2051085;70;20150;-79
2022/10/01 00:51:31;;;;;;;3.50;2.30;;;;;;;10.78;70.91;92559.75;2051484;70;20507;-78
2022/10/01 00:54:07;;;;;;;4.53;2.20;;;;;;;10.76;70.11;92553.97;2051390;70;20146;-79
2022/10/01 00:56:33;;;;;;;3.72;2.35;;;;;;;10.77;70.99;92554.72;2051665;70;20225;-79
2022/10/01 00:58:59;;;;;;;7.35;3.00;;;;;;;10.76;70.83;92553.25;2051507;69;20182;-79
2022/10/01 01:01:24;;;;;;;3.95;2.20;;;;;;;10.75;71.14;92551.78;2051651;70;20170;-77
2022/10/01 01:03:50;;;;;;;4.45;2.17;;;;;;;10.78;70.45;92551.28;2051664;70;20554;-78
2022/10/01 01:06:16;;;;;;;4.13;2.30;;;;;;;10.57;71.44;92557.81;2048255;70;20246;-79
2022/10/01 01:08:42;;;;;;;4.00;2.40;;;;;;;10.57;72.10;92557.09;2051461;70;20201;-79
2022/10/01 01:11:25;;;;;;;3.97;2.00;;;;;;;10.65;71.77;92554.75;2053702;70;20222;-76
2022/10/01 01:14:02;;;;;;;3.95;2.03;;;;;;;10.67;70.93;92549.22;2051483;70;20157;-76
2022/10/01 01:16:37;;;;;;;4.85;2.40;;;;;;;10.63;71.71;92552.56;2051643;70;20162;-79
2022/10/01 01:19:26;;;;;;;5.03;2.58;;;;;;;10.58;72.50;92547.28;2051688;69;20142;-79
2022/10/01 01:21:59;;;;;;;3.00;1.92;;;;;;;10.54;71.09;92542.19;2051583;70;20147;-79
2022/10/01 01:24:44;;;;;;;3.88;2.20;;;;;;;10.56;71.60;92550.72;2051493;70;20554;-78
2022/10/01 01:27:52;;;;;;;3.85;2.00;;;;;;;10.42;72.74;92550.63;2051537;70;20230;-78
2022/10/01 01:30:19;;;;;;;3.78;2.13;;;;;;;10.40;71.48;92549.78;2044428;70;20214;-75
2022/10/01 01:33:03;;;;;;;3.70;2.10;;;;;;;10.40;72.51;92558.97;2051656;70;20143;-77
2022/10/01 01:35:38;;;;;;;2.45;2.25;;;;;;;10.39;72.08;92563.09;2051577;70;20608;-77
2022/10/01 01:38:13;;;;;;;3.25;2.22;;;;;;;10.40;72.81;92561.03;2048518;70;20160;-77
2022/10/01 01:40:41;;;;;;;3.38;2.13;;;;;;;10.36;72.47;92553.09;2053697;70;20258;-77
2022/10/01 01:43:19;;;;;;;4.40;2.25;;;;;;;10.38;72.52;92550.38;2051762;70;20325;-77
2022/10/01 01:45:48;;;;;;;3.72;2.50;;;;;;;10.39;72.24;92549.03;2051394;70;20594;-77
2022/10/01 01:48:13;;;;;;;3.47;2.35;;;;;;;10.40;71.88;92544.91;2051664;70;20582;-77
2022/10/01 01:51:30;;;;;;;4.78;2.40;;;;;;;10.47;71.80;92548.78;2051490;70;20158;-78
2022/10/01 01:53:55;;;;;;;3.03;2.30;;;;;;;10.43;72.30;92538.03;2037207;70;20155;-77
2022/10/01 01:56:22;;;;;;;6.28;2.35;;;;;;;10.43;71.87;92538.03;2037123;70;20166;-78
2022/10/01 01:58:48;;;;;;;6.25;2.30;;;;;;;10.48;71.98;92532.63;2037008;70;20154;-78
2022/10/01 02:01:33;;;;;;;2.95;2.33;;;;;;;10.45;73.42;92537.44;2037196;70;20159;-76
2022/10/01 02:04:02;;;;;;;6.13;2.33;;;;;;;10.47;72.44;92534.72;2037159;70;20168;-78
2022/10/01 02:07:00;;;;;;;4.55;2.38;;;;;;;10.45;72.69;92520.53;2037066;70;20327;-76
2022/10/01 02:09:28;;;;;;;5.70;2.20;;;;;;;10.45;71.74;92520.53;2037076;70;20543;-75
2022/10/01 02:12:06;;;;;;;2.95;2.00;;;;;;;10.43;70.93;92520.41;2037021;70;20224;-75
2022/10/01 02:14:46;;;;;;;3.95;2.00;;;;;;;10.45;72.00;92517.00;2034242;70;20176;-75
2022/10/01 02:17:28;;;;;;;6.85;2.65;;;;;;;10.07;75.94;92528.13;2037197;70;20159;-76
2022/10/01 02:20:02;;;;;;;3.42;2.67;;;;;;;10.31;72.81;92536.56;2037088;70;20136;-76
2022/10/01 02:22:46;;;;;;;4.55;2.30;;;;;;;10.38;72.27;92533.50;2037145;70;20811;-77
2022/10/01 02:25:16;;;;;;;2.70;2.00;;;;;;;10.38;72.08;92532.78;2037160;70;20151;-77
2022/10/01 02:27:52;;;;;;;6.05;2.28;;;;;;;10.38;72.81;92533.50;2036979;70;20166;-76
2022/10/01 02:30:18;;;;;;;4.50;2.10;;;;;;;10.35;72.93;92540.34;2050560;70;20142;-75
2022/10/01 02:32:48;;;;;;;5.43;2.10;;;;;;;10.29;72.64;92534.38;2051431;70;20221;-75
2022/10/01 02:35:18;;;;;;;3.22;2.00;;;;;;;10.30;72.35;92533.03;2050758;70;20507;-77
2022/10/01 02:37:49;;;;;;;3.67;2.45;;;;;;;10.23;72.32;92533.28;2051215;70;20241;-77
2022/10/01 02:40:21;;;;;;;2.65;1.90;;;;;;;10.20;72.73;92538.03;2051398;70;20566;-76
2022/10/01 02:42:53;;;;;;;4.20;1.80;;;;;;;10.17;72.88;92528.75;2051349;70;20150;-76
2022/10/01 02:45:22;;;;;;;2.78;2.00;;;;;;;10.14;72.53;92523.63;2051136;70;20571;-76
2022/10/01 02:47:57;;;;;;;4.40;1.80;;;;;;;10.12;72.71;92520.66;2051586;70;20157;-77
2022/10/01 02:50:39;;;;;;;3.67;2.42;;;;;;;10.02;74.04;92506.72;2050792;70;20617;-77
2022/10/01 02:53:09;;;;;;;4.60;2.10;;;;;;;10.03;72.86;92516.63;2051680;70;20633;-77
2022/10/01 02:55:38;;;;;;;3.17;1.90;;;;;;;10.00;72.81;92508.72;2051384;70;20158;-74
2022/10/01 02:58:04;;;;;;;3.67;2.30;;;;;;;9.94;72.96;92497.81;2051276;70;20237;-77
2022/10/01 03:00:30;;;;;;;3.75;2.05;;;;;;;9.91;72.49;92499.06;2051230;70;20154;-78
2022/10/01 03:02:56;;;;;;;4.05;1.92;;;;;;;9.87;73.22;92496.00;2051359;70;20601;-78
2022/10/01 03:05:22;;;;;;;4.93;2.00;;;;;;;9.86;72.48;92491.72;2047994;70;20149;-76
2022/10/01 03:07:47;;;;;;;3.35;2.28;;;;;;;9.85;72.20;92498.66;2051417;70;20170;-76
2022/10/01 03:10:14;;;;;;;2.95;2.08;;;;;;;9.79;72.45;92499.03;2051232;70;20142;-76
2022/10/01 03:12:42;;;;;;;3.53;2.17;;;;;;;9.64;73.79;92507.97;2051164;70;20233;-76
2022/10/01 03:15:09;;;;;;;3.72;2.13;;;;;;;9.78;72.29;92505.28;2051157;70;20646;-77
2022/10/01 03:17:36;;;;;;;3.30;2.00;;;;;;;9.69;73.16;92509.69;2051293;70;20533;-76
2022/10/01 03:20:02;;;;;;;2.75;2.20;;;;;;;9.71;72.84;92515.41;2051254;70;20186;-78
2022/10/01 03:22:27;;;;;;;2.60;1.90;;;;;;;9.69;74.13;92523.72;2051337;70;20154;-78
2022/10/01 03:24:53;;;;;;;3.15;1.90;;;;;;;9.73;73.41;92535.22;2050700;70;20657;-76
2022/10/01 03:27:20;;;;;;;4.05;2.47;;;;;;;9.76;72.65;92533.25;2051328;70;20142;-75
2022/10/01 03:29:45;;;;;;;4.18;2.40;;;;;;;9.77;72.44;92526.31;2051061;70;20142;-75
2022/10/01 03:32:11;;;;;;;3.80;1.90;;;;;;;9.62;73.74;92530.31;2051154;70;20157;-78
2022/10/01 03:34:37;;;;;;;2.70;2.10;;;;;;;9.72;72.56;92536.56;2051300;70;20157;-78
2022/10/01 03:37:03;;;;;;;2.55;1.85;;;;;;;9.79;71.73;92535.59;2048042;70;20177;-77
2022/10/01 03:39:30;;;;;;;4.18;3.35;;;;;;;9.64;72.87;92527.66;2051260;70;20145;-77
2022/10/01 03:41:56;;;;;;;2.47;2.05;;;;;;;9.53;74.42;92525.53;2051233;70;20173;-76
2022/10/01 03:44:21;;;;;;;3.38;2.50;;;;;;;9.55;74.42;92514.44;2051197;70;20587;-77
2022/10/01 03:46:47;;;;;;;3.35;1.90;;;;;;;9.61;72.93;92512.72;2051376;70;20294;-78
2022/10/01 03:49:13;;;;;;;3.05;2.08;;;;;;;9.69;72.97;92509.69;2051251;70;20589;-77
2022/10/01 03:51:38;;;;;;;2.40;2.20;;;;;;;9.80;72.51;92505.41;2051319;70;20189;-78
2022/10/01 03:54:06;;;;;;;3.80;2.20;;;;;;;9.76;72.19;92508.72;2051186;70;20205;-75
2022/10/01 03:56:32;;;;;;;4.53;2.70;;;;;;;9.70;72.27;92502.72;2051191;70;20216;-76
2022/10/01 03:58:57;;;;;;;2.55;2.10;;;;;;;9.68;72.24;92505.41;2051269;70;20216;-74
2022/10/01 04:01:24;;;;;;;2.45;2.00;;;;;;;9.52;73.44;92505.13;2051282;70;20142;-76
2022/10/01 04:03:51;;;;;;;3.85;2.60;;;;;;;9.44;74.05;92499.03;2051144;70;20250;-77
2022/10/01 04:06:16;;;;;;;7.70;5.53;;;;;;;9.51;72.85;92480.47;2050697;70;20225;-77
2022/10/01 04:08:43;;;;;;;2.63;2.10;;;;;;;9.60;72.38;92485.97;2053302;69;20162;-78
2022/10/01 04:11:11;;;;;;;2.05;1.80;;;;;;;9.61;71.64;92484.63;2051210;70;20169;-75
2022/10/01 04:13:37;;;;;;;3.92;1.90;;;;;;;9.56;72.29;92480.09;2051050;70;20145;-77
2022/10/01 04:16:04;;;;;;;3.30;2.70;;;;;;;9.56;72.68;92480.09;2051003;70;20253;-77
2022/10/01 04:18:30;;;;;;;14.80;7.80;;;;;;;9.41;73.00;92486.94;2051109;70;20459;-76
2022/10/01 04:20:56;;;;;;;5.72;3.80;;;;;;;9.35;73.48;92477.41;2047886;70;20209;-78
2022/10/01 04:23:23;;;;;;;4.47;2.47;;;;;;;9.37;73.25;92485.94;2051192;70;20270;-78
2022/10/01 04:25:48;;;;;;;3.08;1.60;;;;;;;9.34;73.34;92481.53;2051266;70;20244;-73
2022/10/01 04:28:15;;;;;;;2.63;1.90;;;;;;;9.30;73.53;92493.28;2051580;70;20234;-74
2022/10/01 04:30:42;;;;;;;5.15;1.77;;;;;;;9.36;72.86;92490.84;2051577;70;20590;-78
2022/10/01 04:33:11;;;;;;;2.42;2.10;;;;;;;9.34;73.16;92479.47;2053800;69;20617;-76
2022/10/01 04:35:38;;;;;;;2.67;2.05;;;;;;;9.33;72.37;92475.19;2051623;70;20494;-75
2022/10/01 04:38:06;;;;;;;4.68;2.30;;;;;;;9.32;73.00;92482.16;2051607;70;20214;-75
2022/10/01 04:40:35;;;;;;;2.60;2.15;;;;;;;9.30;73.15;92484.09;2051694;70;20244;-76
2022/10/01 04:43:01;;;;;;;5.38;2.85;;;;;;;8.79;76.67;92489.34;2051569;70;20154;-75
2022/10/01 04:45:27;;;;;;;4.57;2.72;;;;;;;9.09;74.33;92501.78;2051544;70;20233;-77
2022/10/01 04:47:54;;;;;;;4.95;2.45;;;;;;;9.21;72.93;92513.03;2051691;70;20260;-78
2022/10/01 04:50:22;;;;;;;3.65;2.47;;;;;;;9.00;74.12;92520.19;2051533;70;20200;-77
2022/10/01 04:52:49;;;;;;;3.88;2.17;;;;;;;9.18;73.74;92528.28;2051604;70;20272;-78
2022/10/01 04:55:16;;;;;;;7.05;2.63;;;;;;;9.23;73.38;92533.56;2051626;70;20141;-77
2022/10/01 04:57:41;;;;;;;3.53;2.20;;;;;;;9.27;72.75;92547.13;2051721;70;20146;-77
2022/10/01 05:00:10;;;;;;;4.60;3.20;;;;;;;9.32;72.48;92543.22;2051678;70;20209;-75
2022/10/01 05:02:35;;;;;;;5.07;3.17;;;;;;;9.28;72.75;92543.69;2051691;70;20574;-76
2022/10/01 05:05:03;;;;;;;4.90;3.20;;;;;;;9.30;72.41;92549.47;2051753;70;20245;-76
2022/10/01 05:07:30;;;;;;;3.78;2.58;;;;;;;9.29;72.37;92547.97;2051830;70;20158;-77
2022/10/01 05:09:56;;;;;;;4.90;3.30;;;;;;;9.22;73.54;92548.22;2051718;70;20175;-75
2022/10/01 05:12:24;;;;;;;4.68;3.30;;;;;;;9.24;73.00;92549.06;2051551;70;20142;-77
2022/10/01 05:14:51;;;;;;;5.18;3.45;;;;;;;9.24;73.40;92551.88;2051413;70;20265;-78
2022/10/01 05:17:18;;;;;;;4.97;3.00;;;;;;;9.22;73.10;92548.22;2051614;70;20175;-78
2022/10/01 05:19:44;;;;;;;7.60;3.10;;;;;;;9.26;72.37;92542.84;2051502;70;20178;-78
2022/10/01 05:22:09;;;;;;;5.28;4.30;;;;;;;9.24;72.84;92548.34;2051583;70;20154;-77
2022/10/01 05:24:35;;;;;;;5.05;4.05;;;;;;;9.25;72.38;92536.47;2051353;70;20152;-78
2022/10/01 05:27:01;;;;;;;8.15;5.10;;;;;;;9.24;73.19;92537.09;2051466;70;20150;-77
2022/10/01 05:29:27;;;;;;;7.57;3.90;;;;;;;9.22;72.80;92534.91;2048089;70;20150;-74
2022/10/01 05:31:52;;;;;;;4.55;2.10;;;;;;;9.22;72.71;92536.97;2051580;70;20150;-75
2022/10/01 05:34:18;;;;;;;2.50;1.80;;;;;;;9.32;71.87;92543.22;2051431;70;20236;-78
2022/10/01 05:36:43;;;;;;;4.30;1.90;;;;;;;9.41;70.83;92545.94;2051382;70;20493;-76
2022/10/01 05:39:09;;;;;;;8.02;3.78;;;;;;;9.30;71.99;92545.91;2051447;70;20185;-75
2022/10/01 05:41:35;;;;;;;12.15;6.35;;;;;;;9.29;72.26;92542.34;2051596;70;20548;-77
2022/10/01 05:44:02;;;;;;;7.25;3.00;;;;;;;9.29;72.35;92553.59;2051327;70;20157;-75
2022/10/01 05:46:27;;;;;;;5.75;2.63;;;;;;;9.37;72.37;92547.75;2051580;70;20154;-78
2022/10/01 05:48:53;;;;;;;4.03;3.00;;;;;;;9.38;72.67;92541.53;2048110;70;20173;-77
2022/10/01 05:51:18;;;;;;;4.28;3.30;;;;;;;9.43;71.88;92540.44;2051557;70;20348;-77
2022/10/01 05:53:47;;;;;;;4.70;3.13;;;;;;;9.48;72.15;92544.22;2051432;70;20141;-78
2022/10/01 05:56:14;;;;;;;4.82;3.15;;;;;;;9.51;70.87;92545.81;2051372;70;20261;-78
2022/10/01 05:58:39;;;;;;;6.80;3.78;;;;;;;9.46;71.97;92546.19;2051546;70;20245;-77
2022/10/01 06:01:06;;;;;;;6.95;4.50;;;;;;;9.37;72.27;92542.13;2051459;70;20229;-73
2022/10/01 06:03:32;;;;;;;5.22;3.28;;;;;;;9.50;71.49;92541.56;2051443;70;20162;-77
2022/10/01 06:05:58;;;;;;;4.13;2.65;;;;;;;9.58;71.69;92535.72;2051360;70;20299;-76
2022/10/01 06:08:23;;;;;;;5.07;3.67;;;;;;;9.64;71.13;92544.50;2051372;70;20591;-75
2022/10/01 06:10:49;;;;;;;8.15;4.55;;;;;;;9.66;71.23;92542.53;2051427;70;20146;-76
2022/10/01 06:13:16;;;;;;;4.25;3.10;;;;;;;9.73;70.30;92552.09;2051251;69;20158;-75
2022/10/01 06:15:44;;;;;;;6.82;2.28;;;;;;;9.77;70.34;92546.72;2051446;70;20156;-77
2022/10/01 06:18:11;;;;;;;3.33;2.65;;;;;;;9.77;71.14;92554.44;2051512;70;20146;-77
2022/10/01 06:20:38;;;;;;;10.05;3.85;;;;;;;9.83;71.31;92551.97;2051738;70;20138;-77
2022/10/01 06:23:06;;;;;;;11.18;7.20;;;;;;;9.78;70.18;92553.06;2051534;70;20155;-78
2022/10/01 06:25:33;;;;;;;11.88;7.47;;;;;;;9.85;70.68;92552.84;2051440;70;20142;-78
2022/10/01 06:28:00;;;;;;;19.38;10.05;;;;;;;9.91;69.87;92544.78;2053678;70;20577;-78
2022/10/01 06:30:28;;;;;;;23.88;12.23;;;;;;;9.74;71.31;92547.22;2048036;70;20151;-78
2022/10/01 06:33:02;;;;;;;20.65;12.18;;;;;;;9.88;71.34;92534.00;2051427;70;20150;-78
2022/10/01 06:35:32;;;;;;;18.63;10.88;;;;;;;9.98;70.85;92528.25;2051344;69;20165;-78
2022/10/01 06:38:01;;;;;;;18.60;10.70;;;;;;;10.09;69.34;92524.72;2048074;70;20147;-78
2022/10/01 06:40:30;;;;;;;21.02;10.93;;;;;;;10.12;70.12;92538.28;2051357;70;20567;-76
2022/10/01 06:42:57;;;;;;;19.83;11.13;;;;;;;10.21;70.34;92539.50;2048123;70;20233;-76
2022/10/01 06:45:27;;;;;;;6.28;3.90;;;;;;;10.17;70.11;92542.06;2051255;70;20161;-77
2022/10/01 06:48:01;;;;;;;3.80;2.28;;;;;;;10.34;69.23;92546.59;2051291;70;20147;-76
2022/10/01 06:50:27;;;;;;;2.90;1.75;;;;;;;10.46;67.48;92552.22;2051411;70;20154;-77
2022/10/01 06:52:53;;;;;;;4.47;2.17;;;;;;;10.54;67.54;92547.81;2051392;70;20170;-76
2022/10/01 06:55:27;;;;;;;4.70;3.40;;;;;;;10.64;67.45;92564.56;2051422;69;20181;-79
2022/10/01 06:58:01;;;;;;;27.40;14.55;;;;;;;10.58;69.95;92562.13;2051357;70;20142;-79
2022/10/01 07:00:29;;;;;;;28.50;13.25;;;;;;;10.79;68.23;92561.19;2051270;70;20185;-79
2022/10/01 07:02:54;;;;;;;25.40;10.38;;;;;;;10.88;67.69;92560.31;2053702;70;20134;-79
2022/10/01 07:05:21;;;;;;;24.52;12.05;;;;;;;10.93;68.50;92567.66;2051453;70;20141;-78
2022/10/01 07:07:47;;;;;;;17.70;9.30;;;;;;;10.64;71.20;92585.00;2051307;70;20571;-75
2022/10/01 07:10:14;;;;;;;18.88;9.48;;;;;;;10.87;69.58;92577.84;2051700;70;20271;-77
2022/10/01 07:12:40;;;;;;;16.95;9.23;;;;;;;11.09;67.99;92579.13;2048328;70;20278;-81
2022/10/01 07:15:07;;;;;;;16.67;9.43;;;;;;;11.22;67.63;92572.06;2051371;70;20158;-77
2022/10/01 07:17:34;;;;;;;15.45;9.60;;;;;;;11.31;67.37;92570.44;2053903;70;20155;-79
2022/10/01 07:20:00;;;;;;;18.10;9.60;;;;;;;11.38;66.72;92561.72;2048221;70;20162;-79
2022/10/01 07:22:26;;;;;;;15.88;8.80;;;;;;;11.47;67.57;92564.97;2051497;70;20141;-73
2022/10/01 07:24:51;;;;;;;14.25;8.55;;;;;;;11.46;67.15;92567.06;2051357;70;20170;-73
2022/10/01 07:27:18;;;;;;;13.50;7.97;;;;;;;11.11;68.98;92561.59;2048263;70;20214;-75
2022/10/01 07:29:44;;;;;;;10.88;6.80;;;;;;;11.06;69.84;92563.44;2051242;70;20157;-75
2022/10/01 07:32:10;;;;;;;11.32;7.63;;;;;;;11.37;68.71;92568.72;2050704;70;20150;-75
2022/10/01 07:34:39;;;;;;;12.40;8.45;;;;;;;11.58;68.82;92567.72;2050795;70;20216;-75
2022/10/01 07:37:05;;;;;;;11.57;8.07;;;;;;;11.69;66.69;92564.13;2051481;70;20621;-75
2022/10/01 07:39:31;;;;;;;9.35;6.60;;;;;;;11.74;66.99;92548.16;2051412;70;20272;-76
2022/10/01 07:41:57;;;;;;;11.38;7.03;;;;;;;11.86;66.26;92554.47;2051438;70;20606;-76
2022/10/01 07:44:24;;;;;;;12.35;7.00;;;;;;;11.83;66.79;92561.38;2051208;70;20210;-78
2022/10/01 07:46:49;;;;;;;11.45;6.82;;;;;;;11.80;67.54;92559.03;2051321;70;20229;-78
2022/10/01 07:49:15;;;;;;;10.88;6.93;;;;;;;11.94;65.89;92560.53;2053418;70;20148;-77
2022/10/01 07:51:44;;;;;;;11.20;7.40;;;;;;;11.99;65.93;92555.13;2051314;70;20216;-77
2022/10/01 07:54:10;;;;;;;10.10;6.63;;;;;;;12.01;66.46;92544.69;2051442;70;20146;-78
2022/10/01 07:56:37;;;;;;;12.75;7.95;;;;;;;11.95;65.86;92555.63;2048120;70;20158;-79
2022/10/01 07:59:03;;;;;;;11.63;7.05;;;;;;;11.99;67.06;92547.38;2051309;70;20150;-79
2022/10/01 08:01:30;;;;;;;11.30;6.32;;;;;;;11.80;68.13;92551.28;2051396;70;20180;-78
2022/10/01 08:03:56;;;;;;;8.70;5.60;;;;;;;11.84;67.60;92553.63;2048279;70;20146;-78
2022/10/01 08:06:21;;;;;;;12.07;6.03;;;;;;;12.02;67.27;92548.97;2051465;70;20165;-76
2022/10/01 08:08:47;;;;;;;9.35;6.13;;;;;;;12.08;66.94;92549.28;2051315;70;20196;-76
2022/10/01 08:11:16;;;;;;;14.48;8.02;;;;;;;12.12;65.75;92545.94;2047923;70;20174;-78
2022/10/01 08:13:46;;;;;;;13.10;8.13;;;;;;;11.99;67.91;92541.72;2051151;70;20164;-80
2022/10/01 08:16:13;;;;;;;16.13;9.05;;;;;;;11.78;68.74;92545.56;2051061;70;20203;-78
2022/10/01 08:18:39;;;;;;;16.65;10.13;;;;;;;11.95;68.07;92536.59;2051200;70;20657;-80
2022/10/01 08:21:06;;;;;;;10.98;7.05;;;;;;;12.13;66.51;92545.31;2051411;70;20146;-72
2022/10/01 08:23:34;;;;;;;11.27;7.22;;;;;;;12.20;66.24;92552.75;2051291;70;20146;-76
2022/10/01 08:26:04;;;;;;;12.07;8.45;;;;;;;12.24;66.48;92540.22;2051270;70;20194;-75
2022/10/01 08:28:30;;;;;;;11.88;8.77;;;;;;;12.26;65.56;92531.84;2051120;70;20158;-78
2022/10/01 08:30:56;;;;;;;16.48;10.55;;;;;;;12.28;65.56;92543.22;2050992;70;20158;-78
2022/10/01 08:33:22;;;;;;;14.45;9.75;;;;;;;12.25;65.74;92536.03;2055617;70;20166;-77
2022/10/01 08:35:48;;;;;;;13.48;9.07;;;;;;;12.31;66.20;92531.41;2056392;70;20157;-78
2022/10/01 08:38:14;;;;;;;12.70;8.77;;;;;;;12.32;66.10;92532.88;2056792;70;20190;-79
2022/10/01 08:40:47;;;;;;;20.85;11.75;;;;;;;12.29;66.83;92534.16;2057048;70;20154;-76
2022/10/01 08:43:35;;;;;;;16.25;10.43;;;;;;;12.48;65.77;92529.44;2056888;70;20142;-74
2022/10/01 08:46:24;;;;;;;12.13;7.18;;;;;;;12.48;65.37;92537.91;2052497;70;20238;-78
2022/10/01 08:49:11;;;;;;;12.15;7.68;;;;;;;12.50;64.90;92530.25;2052254;70;20645;-77
2022/10/01 08:52:11;;;;;;;11.05;7.65;;;;;;;12.54;65.09;92532.56;2052113;70;20233;-80
2022/10/01 08:54:59;;;;;;;11.88;7.32;;;;;;;12.53;65.31;92542.41;2051925;70;20155;-76
2022/10/01 08:57:31;;;;;;;5.70;4.35;;;;;;;12.45;64.24;92546.25;2051138;70;20139;-78
2022/10/01 09:00:00;;;;;;;6.43;4.63;;;;;;;12.49;64.56;92548.56;2051492;70;20616;-76
2022/10/01 09:02:32;;;;;;;6.18;4.38;;;;;;;12.50;65.67;92555.66;2048064;70;20232;-79
2022/10/01 09:05:04;;;;;;;6.15;3.92;;;;;;;12.28;65.09;92552.44;2051260;70;20157;-77
2022/10/01 09:07:55;;;;;;;6.35;4.15;;;;;;;12.33;65.80;92550.56;2051223;70;20209;-79
2022/10/01 09:10:45;;;;;;;10.63;4.40;;;;;;;12.51;65.89;92559.22;2051129;70;20134;-79
2022/10/01 09:13:12;;;;;;;7.03;4.13;;;;;;;12.56;65.69;92558.81;2049316;70;20162;-76
2022/10/01 09:15:37;;;;;;;6.53;4.30;;;;;;;12.58;65.23;92556.09;2051550;70;20693;-80
2022/10/01 09:18:24;;;;;;;6.05;3.97;;;;;;;12.64;64.48;92553.56;2051564;70;20203;-78
2022/10/01 09:20:57;;;;;;;4.78;3.47;;;;;;;12.45;64.80;92560.38;2051497;70;20137;-79
2022/10/01 09:23:27;;;;;;;4.97;3.13;;;;;;;12.64;64.18;92552.84;2051601;70;20150;-80
2022/10/01 09:25:54;;;;;;;5.35;3.92;;;;;;;12.69;63.54;92548.84;2051651;70;20154;-80
2022/10/01 09:28:26;;;;;;;6.88;3.75;;;;;;;12.66;64.83;92542.38;2051518;70;20139;-80
2022/10/01 09:31:25;;;;;;;4.07;2.90;;;;;;;12.83;63.21;92527.00;2050920;70;20146;-79
2022/10/01 09:34:29;;;;;;;5.22;3.45;;;;;;;12.94;63.37;92528.22;2050413;70;20153;-80
2022/10/01 09:37:20;;;;;;;6.05;3.83;;;;;;;13.30;62.73;92520.81;2047258;70;20160;-79
2022/10/01 09:39:50;;;;;;;8.88;4.70;;;;;;;13.35;62.90;92511.16;2051604;70;20158;-77
2022/10/01 09:42:17;;;;;;;6.25;4.07;;;;;;;13.39;61.85;92527.56;2051795;70;20638;-79
2022/10/01 09:44:43;;;;;;;4.28;3.10;;;;;;;13.47;61.29;92527.97;2051444;70;20147;-83
2022/10/01 09:47:17;;;;;;;5.38;3.20;;;;;;;13.52;60.63;92526.78;2053822;70;20169;-81
2022/10/01 09:49:44;;;;;;;3.03;2.45;;;;;;;13.36;60.83;92521.09;2051500;70;20237;-78
2022/10/01 09:52:18;;;;;;;3.40;2.17;;;;;;;13.21;60.88;92536.59;2051493;69;20220;-80
2022/10/01 09:55:14;;;;;;;2.67;2.10;;;;;;;13.46;59.80;92526.47;2051640;70;20543;-77
2022/10/01 09:57:46;;;;;;;3.33;2.88;;;;;;;13.51;60.44;92522.47;2048273;70;20245;-79
2022/10/01 10:00:18;;;;;;;4.10;2.25;;;;;;;13.69;60.00;92531.09;2051389;70;20139;-79
2022/10/01 10:02:48;;;;;;;5.22;2.50;;;;;;;13.72;60.30;92532.66;2051534;70;20168;-80
2022/10/01 10:05:21;;;;;;;2.97;2.50;;;;;;;13.78;60.46;92538.59;2048309;70;20142;-79
2022/10/01 10:08:14;;;;;;;4.32;2.25;;;;;;;13.83;60.79;92539.50;2051613;70;20224;-79
2022/10/01 10:10:48;;;;;;;;;;;;;;;13.79;59.94;92536.47;2050125;70;20158;-81
2022/10/01 10:13:25;;;;;;;4.55;2.00;;;;;;;12.98;60.58;92520.66;2051449;70;20394;-78
2022/10/01 10:15:56;;;;;;;4.35;2.70;;;;;;;13.00;61.46;92524.94;2053560;69;20157;-77
2022/10/01 10:18:35;;;;;;;3.17;2.33;;;;;;;13.34;60.33;92526.66;2051620;70;20209;-78
2022/10/01 10:21:06;;;;;;;3.67;2.50;;;;;;;13.50;60.61;92526.69;2051537;70;20138;-80
2022/10/01 10:23:33;;;;;;;4.82;3.83;;;;;;;13.51;59.55;92516.81;2048128;70;20142;-78
2022/10/01 10:26:01;;;;;;;5.32;4.13;;;;;;;13.67;60.11;92525.34;2048073;70;20514;-80
2022/10/01 10:28:38;;;;;;;6.13;4.32;;;;;;;13.75;59.70;92525.00;2051311;70;20150;-78
2022/10/01 10:31:09;;;;;;;5.38;3.40;;;;;;;13.78;60.55;92538.59;2051381;70;20134;-77
2022/10/01 10:33:36;;;;;;;5.03;2.60;;;;;;;13.88;60.21;92521.34;2051500;70;20161;-76
2022/10/01 10:36:05;;;;;;;3.72;2.70;;;;;;;13.85;59.54;92528.28;2053645;70;20169;-77
2022/10/01 10:38:33;;;;;;;3.83;2.83;;;;;;;13.81;59.42;92530.94;2051353;70;20162;-77
2022/10/01 10:41:00;;;;;;;3.25;2.20;;;;;;;13.76;59.79;92529.28;2051405;70;20265;-76
2022/10/01 10:43:31;;;;;;;6.85;3.72;;;;;;;13.58;59.76;92534.81;2051320;70;20189;-75
2022/10/01 10:45:57;;;;;;;5.05;3.03;;;;;;;13.65;59.51;92528.06;2051182;70;20142;-77
2022/10/01 10:48:30;;;;;;;6.03;3.30;;;;;;;13.86;59.80;92532.56;2051368;70;20601;-78
2022/10/01 10:51:00;;;;;;;;;;;;;;;13.94;60.07;92527.28;2051459;70;20170;-76
2022/10/01 10:53:28;;;;;;;8.90;6.25;;;;;;;13.87;59.45;92539.69;2051380;70;20043;-75
2022/10/01 10:56:00;;;;;;;2.97;2.60;;;;;;;13.76;59.67;92523.63;2051315;70;20197;-77
2022/10/01 10:58:28;;;;;;;3.58;2.20;;;;;;;13.57;60.26;92525.63;2051265;70;20575;-78
2022/10/01 11:00:57;;;;;;;3.15;2.53;;;;;;;13.61;60.68;92528.63;2051245;70;20221;-78
2022/10/01 11:03:27;;;;;;;4.13;3.10;;;;;;;13.61;61.67;92531.47;2051237;70;20150;-77
2022/10/01 11:05:58;;;;;;;3.38;2.58;;;;;;;13.85;60.68;92536.78;2051391;70;20505;-77
2022/10/01 11:08:29;;;;;;;3.85;2.30;;;;;;;13.91;60.65;92532.13;2051326;70;20661;-78
2022/10/01 11:10:54;;;;;;;3.03;2.08;;;;;;;14.02;61.38;92532.56;2051479;70;20486;-77
2022/10/01 11:13:48;;;;;;;4.25;2.70;;;;;;;14.03;62.44;92528.41;2051151;70;20630;-79
2022/10/01 11:16:25;;;;;;;3.55;2.70;;;;;;;14.05;63.53;92522.81;2051108;70;20578;-77
2022/10/01 11:19:06;;;;;;;7.05;2.30;;;;;;;14.05;64.00;92523.53;2051245;70;20569;-77
2022/10/01 11:22:17;;;;;;;3.78;2.40;;;;;;;14.11;64.40;92517.41;2051437;70;20165;-77
2022/10/01 11:24:46;;;;;;;8.38;2.72;;;;;;;14.15;65.39;92518.34;2050543;70;20237;-76
2022/10/01 11:27:25;;;;;;;3.95;2.13;;;;;;;14.13;65.19;92506.19;2051469;70;20675;-76
2022/10/01 11:29:51;;;;;;;5.22;3.30;;;;;;;14.24;63.89;92519.44;2051143;70;20197;-76
2022/10/01 11:32:18;;;;;;;6.72;4.05;;;;;;;14.26;62.31;92515.97;2053485;70;20136;-76
2022/10/01 11:34:49;;;;;;;7.75;3.90;;;;;;;14.15;61.84;92518.34;2051114;70;20234;-76
2022/10/01 11:37:31;;;;;;;4.90;2.88;;;;;;;14.22;61.22;92510.84;2051174;70;20146;-74
2022/10/01 11:40:02;;;;;;;2.78;2.20;;;;;;;14.29;61.18;92529.56;2051311;70;20232;-74
2022/10/01 11:42:34;;;;;;;4.88;2.20;;;;;;;14.23;60.94;92526.47;2051300;70;20498;-73
2022/10/01 11:45:10;;;;;;;4.30;2.40;;;;;;;14.10;60.88;92532.94;2051148;70;20143;-75
2022/10/01 11:47:51;;;;;;;4.15;2.40;;;;;;;14.21;60.75;92543.38;2051165;70;20153;-73
2022/10/01 11:50:24;;;;;;;3.03;2.00;;;;;;;13.90;60.02;92553.31;2051373;70;20173;-76